x

Prestwick Rnas (03136) Weather Station

6:00 - Tue 3rd Mar 2015 All times are GMT.

  • Wind
    25mph, 37mph gusts
  • Ar Temp 41°f
  • Sea Pressure 1006mb
  • Prestwick Rnas
  • Prestwick Rnas

More Historic Weather Station data

Upgrade to MSW Pro to gain access to the past 30 days of data for over 8000 Wavebouys and Weather Stations around the globe.

Join Pro

Comparision Forecast

View Surf forecast
   
Ter 03/03 6:00 25 37 mph 1006mb 41f
5:00 22 39 mph 1006mb 40f
4:00 30 40 mph 1005mb 40f
3:00 26 40 mph 1005mb 41f
2:00 26 38 mph 1006mb 40f
1:00 25 33 mph 1006mb 40f
12:00 24 34 mph 1006mb 38f
11:00 24 34 mph 1005mb 40f
10:00 24 33 mph 1005mb 38f
9:00 19 29 mph 1005mb 37f
8:00 18 32 mph 1004mb 37f
7:00 19 30 mph 1004mb 38f
6:00 21 32 mph 1003mb 37f
5:00 25 38 mph 1003mb 37f
4:00 26 40 mph 1003mb 37f
3:00 25 38 mph 1003mb 38f
2:00 21 39 mph 1003mb 38f
1:00 24 38 mph 1003mb 38f
12:00 29 40 mph 1003mb 38f
Seg 03/02 11:00 24 39 mph 1003mb 37f
10:00 24 38 mph 1003mb 38f
9:00 26 38 mph 1002mb 38f
8:00 25 39 mph 1002mb 39f
7:00 24 34 mph 1002mb 39f
6:00 24 36 mph 1001mb 38f
5:00 26 39 mph 1001mb 39f
4:00 26 38 mph 1001mb 39f
3:00 28 40 mph 1000mb 41f
2:00 21 36 mph 1000mb 36f
1:00 22 37 mph 999mb 38f
12:00 15 36 mph 999mb 39f
11:00 18 41 mph 997mb 40f
10:00 9 33 mph 995mb 34f
9:00 16 30 mph 994mb 37f
8:00 18 39 mph 993mb 35f
7:00 16 34 mph 992mb 37f
6:00 22 31 mph 991mb 38f
5:00 23 34 mph 991mb 38f
4:00 17 29 mph 992mb 38f
3:00 22 31 mph 992mb 39f
2:00 22 33 mph 992mb 39f
1:00 18 34 mph 992mb 39f
12:00 25 34 mph 992mb 39f
Dom 03/01 11:00 14 36 mph 992mb 38f
10:00 13
mph
991mb 41f
8:00 10
mph
990mb 38f
7:00 17 33 mph 990mb 37f
6:00 21 37 mph 989mb 36f
5:00 21 30 mph 988mb 40f
4:00 21 38 mph 988mb 39f
3:00 23 36 mph 988mb 41f
2:00 23 38 mph 988mb 37f
1:00 24 40 mph 988mb 44f
12:00 29 37 mph 988mb 42f
11:00 24 38 mph 988mb 42f
10:00 22 43 mph 988mb 39f
9:00 21 46 mph 987mb 41f
8:00 24 40 mph 987mb 41f
7:00 26 43 mph 986mb 40f
6:00 28 41 mph 985mb 41f
5:00 26 39 mph 985mb 42f
4:00 24 45 mph 983mb 41f
3:00 30 51 mph 982mb 43f
2:00 30 53 mph 983mb 42f
1:00 25 47 mph 982mb 45f
12:00 26 52 mph 980mb 44f
Sáb 02/28 11:00 37 55 mph 979mb 46f
10:00 38 56 mph 977mb 46f
9:00 40 57 mph 977mb 48f
8:00 24 39 mph 978mb 49f
7:00 29 43 mph 980mb 48f
6:00 26 43 mph 981mb 46f
5:00 19 31 mph 984mb 45f
4:00 17 31 mph 988mb 44f
3:00 22 36 mph 991mb 46f
2:00 22 30 mph 992mb 47f
1:00 23 32 mph 994mb 46f
12:00 19 29 mph 996mb 47f
11:00 19
mph
998mb 46f
10:00 17
mph
998mb 46f
9:00 15
mph
999mb 45f
8:00 19
mph
1000mb 45f
7:00 16
mph
1000mb 44f
6:00 14
mph
1000mb 45f
5:00 11
mph
1001mb 45f
4:00 18 29 mph 1001mb 45f
3:00 25 38 mph 1001mb 45f
2:00 19 34 mph 1002mb 45f
1:00 22 38 mph 1003mb 46f
12:00 25 37 mph 1003mb 45f
Sex 02/27 11:00 26 36 mph 1004mb 43f
10:00 21 36 mph 1005mb 43f
9:00 23 32 mph 1006mb 44f
8:00 21 31 mph 1006mb 44f
7:00 21 31 mph 1008mb 43f